Latest Weather Observations for Warragul (Nilma North)

IDV60801

Issued at 10:05 am EST Wednesday 3 September 2014 (issued every 30 minutes, with the page automatically refreshed every 10 minutes)

About weather observations | Map of weather stations | Latest weather observations for VIC | Other Formats
Station Details ID: 085313 Name: NILMA NORTH (WARRAGUL) Lat: -38.13 Lon: 145.99 Height: 134.11 m
Data from the previous 72 hours. | See also: Recent months for locations in Victoria
Date/Time
EST
Temp
°C
App
Temp
°C
Dew
Point
Rel
Hum
%
Delta-T
°C
Wind Press
QNH
hPa
Press
MSL
hPa
Rain
since 9 am
mm
Dir
 
Spd
km/h
Gust
km/h
Spd
kts
Gust
kts
03/10:00am 11.4 9.7 5.7 68 2.6 NW 4 9 2 5 1022.8 1022.9 0.0
03/09:30am 10.1 8.1 4.5 68 2.5 WSW 4 9 2 5 1023.0 1023.1 0.0
03/09:00am 10.1 8.2 5.1 71 2.3 NNW 4 7 2 4 1023.3 1023.4 1.0
03/08:30am 9.2 7.2 6.3 82 1.3 NNW 6 9 3 5 1023.1 1023.2 1.0
03/08:00am 8.3 6.4 6.6 89 0.8 NNW 6 9 3 5 1023.0 1023.1 1.0
03/07:30am 7.4 5.4 6.2 92 0.5 NNW 6 9 3 5 1022.7 1022.8 1.0
03/07:00am 6.1 3.9 5.5 96 0.3 NNW 6 7 3 4 1022.4 1022.5 1.0
03/06:30am 5.9 4.1 5.3 96 0.3 NW 4 7 2 4 1022.3 1022.4 0.8
03/06:00am 5.7 3.8 5.1 96 0.3 NNW 4 6 2 3 1022.3 1022.4 0.8
03/05:30am 5.7 3.8 5.0 95 0.3 NW 4 6 2 3 1022.1 1022.2 0.8
03/05:00am 6.2 4.4 5.6 96 0.3 WNW 4 6 2 3 1022.0 1022.1 0.8
03/04:30am 6.5 4.8 5.8 95 0.3 NW 4 7 2 4 1021.8 1021.9 0.8
03/04:00am 6.3 4.2 5.7 96 0.3 W 6 7 3 4 1021.7 1021.8 0.8
03/03:30am 5.7 3.2 4.8 94 0.4 NW 7 11 4 6 1021.6 1021.7 0.8
03/03:00am 5.8 3.5 4.8 93 0.4 NW 6 9 3 5 1021.5 1021.6 0.8
03/02:30am 5.6 3.2 4.4 92 0.5 NW 6 9 3 5 1021.8 1021.9 0.6
03/02:00am 5.3 3.7 4.4 94 0.4 NNW 2 7 1 4 1021.9 1022.0 0.6
03/01:30am 5.3 2.9 4.4 94 0.4 WNW 6 7 3 4 1022.0 1022.1 0.6
03/01:00am 5.1 3.0 4.1 93 0.4 NW 4 6 2 3 1022.0 1022.1 0.6
03/12:30am 4.9 2.8 3.7 92 0.5 NW 4 7 2 4 1021.9 1022.0 0.6
03/12:00am 4.9 2.4 3.6 91 0.5 WNW 6 9 3 5 1022.0 1022.1 0.6
 
Date/Time
EST
Temp
°C
App
Temp
°C
Dew
Point
Rel
Hum
%
Delta-T
°C
Wind Press
QNH
hPa
Press
MSL
hPa
Rain
since 9 am
mm
Dir
 
Spd
km/h
Gust
km/h
Spd
kts
Gust
kts
02/11:30pm 5.3 3.2 4.0 91 0.6 NW 4 7 2 4 1022.0 1022.1 0.6
02/11:00pm 5.4 2.9 3.7 89 0.7 NW 6 9 3 5 1022.1 1022.2 0.6
02/10:30pm 5.7 3.6 3.7 87 0.8 NW 4 7 2 4 1022.1 1022.2 0.6
02/10:00pm 6.0 3.6 4.2 88 0.8 NW 6 11 3 6 1022.0 1022.1 0.6
02/09:30pm 6.0 3.6 4.2 88 0.8 NW 6 7 3 4 1022.1 1022.2 0.6
02/09:00pm 6.9 4.9 4.6 85 1.0 NW 4 6 2 3 1022.1 1022.2 0.6
02/08:30pm 7.4 5.1 4.7 83 1.2 NW 6 9 3 5 1022.0 1022.1 0.6
02/08:00pm 7.2 4.8 4.2 81 1.3 NW 6 7 3 4 1021.8 1021.9 0.6
02/07:30pm 6.9 4.7 3.5 79 1.5 NW 4 7 2 4 1021.5 1021.6 0.6
02/07:00pm 7.5 5.3 3.4 75 1.7 W 4 4 2 2 1021.2 1021.3 0.6
02/06:30pm 8.6 6.4 3.6 71 2.2 SW 4 7 2 4 1020.9 1021.0 0.6
02/06:00pm 9.1 6.5 3.3 67 2.5 SW 6 9 3 5 1020.5 1020.6 0.6
02/05:30pm 9.8 6.6 3.1 63 2.9 SSW 9 20 5 11 1020.1 1020.2 0.6
02/05:00pm 11.0 7.4 3.1 58 3.5 SW 11 24 6 13 1019.8 1019.9 0.6
02/04:30pm 11.7 8.4 4.7 62 3.2 SW 11 19 6 10 1019.4 1019.5 0.6
02/04:00pm 11.2 9.1 5.9 70 2.5 SSW 6 11 3 6 1019.2 1019.3 0.6
02/03:30pm 11.2 7.4 5.9 70 2.5 SSW 15 26 8 14 1018.8 1018.9 0.6
02/03:00pm 11.9 8.1 5.8 66 2.9 S 15 24 8 13 1018.5 1018.6 0.6
02/02:30pm 10.4 5.6 5.8 73 2.1 S 20 39 11 21 1018.3 1018.4 0.6
02/02:00pm 12.5 8.8 4.7 59 3.6 SSW 13 24 7 13 1017.8 1017.9 0.6
02/01:30pm 13.0 8.8 5.7 61 3.5 S 17 28 9 15 1017.7 1017.8 0.6
02/01:00pm 12.5 7.9 6.5 67 2.9 S 20 37 11 20 1017.6 1017.7 0.6
02/12:30pm 11.8 8.3 7.1 73 2.3 S 15 28 8 15 1017.6 1017.7 0.6
02/12:00pm 11.4 8.1 8.1 80 1.6 S 15 22 8 12 1017.4 1017.5 0.6
02/11:30am 11.6 8.3 6.5 71 2.4 SSW 13 28 7 15 1017.2 1017.3 0.2
02/11:00am 11.6 9.6 7.3 75 2.1 WSW 7 15 4 8 1017.2 1017.3 0.2
02/10:30am 11.0 8.8 7.7 80 1.6 W 9 15 5 8 1017.1 1017.2 0.2
02/10:00am 10.3 8.5 8.1 86 1.1 SW 7 19 4 10 1016.9 1017.0 0.2
02/09:30am 10.7 8.4 7.6 81 1.5 W 9 17 5 9 1016.8 1016.9 0.0
02/09:00am 10.6 8.1 8.4 86 1.1 W 11 15 6 8 1016.7 1016.8 14.4
02/08:30am 9.1 7.9 8.2 94 0.4 WNW 4 9 2 5 1016.4 1016.5 14.4
02/08:00am 8.3 6.0 7.4 94 0.4 WNW 9 15 5 8 1015.9 1016.0 14.4
02/07:30am 7.6 5.8 7.2 97 0.2 WNW 6 11 3 6 1015.5 1015.6 14.4
02/07:00am 6.7 4.7 6.3 97 0.2 WNW 6 9 3 5 1015.0 1015.0 14.4
02/06:30am 7.0 4.1 6.6 97 0.2 W 11 13 6 7 1014.7 1014.7 14.4
02/06:00am 7.5 5.5 7.1 97 0.2 WNW 7 13 4 7 1014.3 1014.3 14.4
02/05:30am 7.9 5.6 7.5 97 0.2 W 9 13 5 7 1013.9 1013.9 14.2
02/05:00am 8.0 6.2 7.2 95 0.4 W 6 9 3 5 1013.7 1013.7 14.0
02/04:30am 7.9 5.5 7.1 95 0.4 W 9 15 5 8 1013.1 1013.2 13.6
02/04:00am 7.8 5.4 7.1 95 0.3 W 9 15 5 8 1012.7 1012.8 13.4
02/03:30am 8.5 5.9 7.9 96 0.3 W 11 17 6 9 1012.7 1012.8 13.4
02/03:00am 8.3 5.7 7.9 97 0.2 W 11 17 6 9 1012.6 1012.7 13.4
02/02:30am 8.5 5.6 8.1 97 0.2 W 13 17 7 9 1012.4 1012.5 13.4
02/02:00am 8.9 5.7 8.6 98 0.1 W 15 20 8 11 1012.2 1012.3 13.4
02/01:30am 9.3 6.6 9.0 98 0.1 W 13 20 7 11 1012.1 1012.2 13.4
02/01:00am 9.2 6.4 8.7 97 0.2 W 13 20 7 11 1012.1 1012.2 13.4
02/12:30am 9.3 7.4 9.0 98 0.1 W 9 15 5 8 1012.0 1012.1 13.4
02/12:00am 9.4 7.1 9.1 98 0.1 W 11 15 6 8 1011.8 1011.9 13.4
 
Date/Time
EST
Temp
°C
App
Temp
°C
Dew
Point
Rel
Hum
%
Delta-T
°C
Wind Press
QNH
hPa
Press
MSL
hPa
Rain
since 9 am
mm
Dir
 
Spd
km/h
Gust
km/h
Spd
kts
Gust
kts
01/11:30pm 9.4 7.9 9.1 98 0.1 WNW 7 13 4 7 1011.7 1011.8 13.4
01/11:00pm 9.4 7.9 9.1 98 0.1 W 7 11 4 6 1011.7 1011.8 13.4
01/10:30pm 9.4 7.5 9.1 98 0.1 W 9 15 5 8 1011.5 1011.6 13.4
01/10:00pm 9.5 8.0 9.2 98 0.1 WNW 7 11 4 6 1011.7 1011.8 13.4
01/09:30pm 9.5 8.2 9.2 98 0.1 WNW 6 11 3 6 1011.4 1011.5 13.4
01/09:00pm 9.7 7.9 9.4 98 0.2 W 9 13 5 7 1011.0 1011.1 13.4
01/08:30pm 9.5 8.5 9.0 97 0.2 WNW 4 6 2 3 1011.0 1011.1 13.2
01/08:00pm 9.9 9.1 9.6 98 0.2 W 4 6 2 3 1010.8 1010.9 13.2
01/07:30pm 9.9 8.7 9.6 98 0.2 S 6 11 3 6 1010.4 1010.5 9.6
01/07:00pm 9.7 8.3 9.4 98 0.2 WNW 7 13 4 7 1010.0 1010.1 8.4
01/06:30pm 9.7 7.9 9.4 98 0.2 NW 9 15 5 8 1009.7 1009.8 8.2
01/06:00pm 9.7 8.4 9.2 97 0.2 WNW 6 9 3 5 1009.4 1009.5 8.0
01/05:30pm 9.9 8.5 9.4 97 0.3 NW 7 11 4 6 1009.2 1009.3 7.8
01/05:00pm 10.2 8.4 9.6 96 0.3 WNW 9 15 5 8 1008.9 1008.9 7.6
01/04:30pm 10.6 8.2 10.0 96 0.3 W 13 20 7 11 1008.8 1008.8 7.0
01/04:00pm 11.0 9.4 10.2 95 0.4 WNW 9 19 5 10 1008.4 1008.4 5.4
01/03:30pm 11.0 9.0 10.1 94 0.5 WNW 11 19 6 10 1008.3 1008.3 4.6
01/03:00pm 11.2 9.2 10.1 93 0.6 WNW 11 17 6 9 1008.1 1008.1 3.8
01/02:30pm 11.1 8.3 10.0 93 0.6 WNW 15 22 8 12 1007.9 1007.9 3.4
01/02:00pm 11.1 8.2 9.7 91 0.7 WNW 15 24 8 13 1008.1 1008.1 2.4
01/01:30pm 11.4 7.1 9.5 88 1.0 W 22 32 12 17 1007.9 1007.9 1.4
01/01:00pm 13.2 8.5 9.3 77 2.0 W 24 37 13 20 1007.9 1007.9 0.2
01/12:30pm 15.7 8.6 6.4 54 4.6 W 33 50 18 27 1007.6 1007.6 0.0
01/12:09pm 16.9 10.4 6.4 50 5.2 W 30 48 16 26 1007.5 1007.5 0.0
01/12:00pm 16.7 9.7 6.2 50 5.2 W 32 46 17 25 1007.6 1007.6 0.0
01/11:30am 17.0 11.3 6.5 50 5.2 W 26 37 14 20 1007.6 1007.6 0.0
01/11:00am 16.7 12.4 7.1 53 4.8 WNW 19 30 10 16 1007.7 1007.7 0.0
01/10:30am 16.2 12.9 6.6 53 4.7 W 13 28 7 15 1008.1 1008.1 0.0
01/10:00am 16.5 14.4 6.6 52 4.9 WNW 7 13 4 7 1007.9 1007.9 0.0
01/09:30am 16.8 14.2 6.0 49 5.3 NW 9 22 5 12 1007.9 1008.0 0.0
01/09:00am 16.4 14.3 6.0 50 5.1 NNE 6 7 3 4 1008.0 1008.1 0.0
01/08:30am 16.2 13.9 5.8 50 5.0 N 7 9 4 5 1008.0 1008.1 0.0
01/08:00am 15.8 13.0 5.1 49 5.1 NNW 9 13 5 7 1008.2 1008.3 0.0
01/07:30am 15.8 12.6 5.1 49 5.1 N 11 19 6 10 1008.2 1008.3 0.0
01/07:00am 16.2 12.5 4.6 46 5.5 NNW 13 28 7 15 1008.5 1008.7 0.0
01/06:30am 16.3 12.6 4.7 46 5.5 N 13 28 7 15 1008.0 1008.1 0.0
01/06:00am 16.6 11.2 4.6 45 5.7 N 22 35 12 19 1007.7 1007.8 0.0
01/05:30am 16.7 11.9 4.7 45 5.7 N 19 32 10 17 1008.3 1008.4 0.0
01/05:00am 16.9 11.1 4.6 44 5.9 N 24 44 13 24 1008.7 1008.9 0.0
01/04:30am 16.9 11.5 4.6 44 5.9 N 22 43 12 23 1008.4 1008.5 0.0
01/04:00am 16.4 13.6 5.1 47 5.4 N 9 22 5 12 1008.9 1009.1 0.0
01/03:30am 16.1 12.9 5.1 48 5.3 NNE 11 24 6 13 1009.1 1009.3 0.0
01/03:00am 16.4 13.7 5.4 48 5.3 N 9 15 5 8 1009.6 1009.8 0.0
01/02:30am 16.3 14.0 5.6 49 5.2 N 7 13 4 7 1009.8 1010.0 0.0
01/02:00am 11.6 10.4 7.9 78 1.8 E 4 7 2 4 1010.2 1010.4 0.0
01/01:30am 12.4 10.7 7.5 72 2.4 S 6 9 3 5 1010.2 1010.4 0.0
01/01:00am 13.1 11.7 7.1 67 2.9 SE 4 7 2 4 1010.2 1010.4 0.0
01/12:30am 11.9 10.2 8.2 78 1.8 E 7 11 4 6 1010.3 1010.5 0.0
01/12:00am 12.4 10.3 8.1 75 2.1 E 9 17 5 9 1010.3 1010.5 0.0
 
Date/Time
EST
Temp
°C
App
Temp
°C
Dew
Point
Rel
Hum
%
Delta-T
°C
Wind Press
QNH
hPa
Press
MSL
hPa
Rain
since 9 am
mm
Dir
 
Spd
km/h
Gust
km/h
Spd
kts
Gust
kts
31/11:30pm 12.0 9.8 7.7 75 2.1 E 9 11 5 6 1011.4 1011.6 0.0
31/11:00pm 13.0 11.1 7.5 69 2.7 E 7 13 4 7 1012.1 1012.3 0.0
31/10:30pm 14.3 12.2 6.6 60 3.7 NE 7 15 4 8 1012.6 1012.8 0.0
31/10:00pm 15.8 13.9 6.8 55 4.4 N 6 9 3 5 1012.9 1013.1 0.0
31/09:30pm 16.1 12.9 6.8 54 4.6 NNE 13 22 7 12 1013.2 1013.4 0.0
31/09:00pm 16.2 13.0 6.9 54 4.6 N 13 22 7 12 1013.6 1013.7 0.0
31/08:30pm 16.1 13.4 7.3 56 4.4 N 11 20 6 11 1013.8 1013.9 0.0
31/08:00pm 15.9 12.9 7.7 58 4.1 N 13 22 7 12 1013.9 1014.0 0.0
31/07:30pm 15.9 13.7 7.7 58 4.1 N 9 15 5 8 1014.0 1014.1 0.0
31/07:00pm 15.2 13.6 8.0 62 3.6 NNE 6 7 3 4 1014.2 1014.3 0.0
31/06:30pm 14.6 14.3 8.5 67 3.1 CALM 0 0 0 0 1014.3 1014.4 0.0
31/06:00pm 15.3 14.9 8.1 62 3.6 CALM 0 0 0 0 1014.3 1014.4 0.0
31/05:30pm 16.2 16.0 8.9 62 3.8 CALM 0 0 0 0 1014.1 1014.2 0.0
31/05:00pm 17.2 16.5 8.4 56 4.5 WNW 2 6 1 3 1014.0 1014.1 0.0
31/04:30pm 18.3 17.4 9.1 55 4.8 NW 4 7 2 4 1014.0 1014.1 0.0
31/04:00pm 19.1 17.0 8.1 49 5.7 NNW 9 15 5 8 1014.1 1014.2 0.0
31/03:30pm 20.1 18.0 8.4 47 6.1 NNW 9 17 5 9 1014.3 1014.4 0.0
31/03:00pm 19.8 18.1 8.2 47 6.0 N 7 13 4 7 1014.6 1014.7 0.0
31/02:30pm 21.7 20.1 7.9 41 7.2 NNW 6 11 3 6 1014.9 1015.1 0.0
31/02:00pm 20.8 20.3 10.6 52 5.6 SW 4 7 2 4 1015.2 1015.4 0.0
31/01:30pm 20.4 19.7 9.9 51 5.7 NNW 4 7 2 4 1015.5 1015.7 0.0
31/01:00pm 19.4 18.3 10.1 55 5.0 SSW 6 7 3 4 1015.9 1016.1 0.0
31/12:30pm 18.3 17.7 11.6 65 3.7 SSW 6 9 3 5 1016.3 1016.5 0.0
31/12:00pm 17.6 17.7 11.6 68 3.3 SSE 2 6 1 3 1016.8 1017.0 0.0
31/11:30am 16.5 16.2 11.4 72 2.8 SE 4 6 2 3 1017.5 1017.7 0.0
31/11:00am 15.5 15.3 11.9 79 2.0 SE 4 6 2 3 1017.9 1018.1 0.0
31/10:30am 13.6 12.9 10.2 80 1.8 ESE 4 6 2 3 1018.4 1018.6 0.0

Other Formats:

Comma delimited format used in spreadsheet applications
http://www.bom.gov.au/fwo/IDV60801/IDV60801.99806.axf

JavaScript Object Notation format (JSON) in row-major order
http://www.bom.gov.au/fwo/IDV60801/IDV60801.99806.json